Time;durP1;ratioP1;P1;durP2;ratioP2;P2;SDS_P1;SDS_P2;PMS_P1;PMS_P2;Temp;Humidity;BMP_temperature;BMP_pressure;BME280_temperature;BME280_humidity;BME280_pressure;Samples;Min_cycle;Max_cycle;Signal;HPM_P1;HPM_P2
2022/05/05 00:00:55;;;;;;;6.30;2.20;;;;;;;16.69;64.01;101437.50;2103501;28;20090;-71
2022/05/05 00:02:18;;;;;;;6.53;2.40;;;;;;;16.71;64.09;101442.84;2103838;28;20082;-72
2022/05/05 00:03:40;;;;;;;10.20;2.92;;;;;;;16.72;64.17;101437.50;2103716;28;20046;-72
2022/05/05 00:05:03;;;;;;;9.02;2.55;;;;;;;16.75;64.16;101444.59;2103727;28;20052;-71
2022/05/05 00:06:24;;;;;;;6.97;2.47;;;;;;;16.76;64.06;101442.84;2097034;28;20094;-72
2022/05/05 00:07:47;;;;;;;4.43;2.00;;;;;;;16.77;64.17;101444.63;2105773;28;20039;-72
2022/05/05 00:09:10;;;;;;;4.93;2.45;;;;;;;16.76;64.13;101433.06;2103453;28;20101;-72
2022/05/05 00:15:32;;;;;;;5.13;2.03;;;;;;;16.71;64.02;101434.84;2098352;28;20048;-72
2022/05/05 00:16:56;;;;;;;5.43;2.10;;;;;;;16.66;64.18;101432.19;2094994;28;20072;-72
2022/05/05 00:18:19;;;;;;;3.70;2.13;;;;;;;16.62;64.18;101430.38;2089766;28;20036;-72
2022/05/05 00:19:43;;;;;;;8.10;2.67;;;;;;;16.59;64.21;101427.69;2101370;28;20158;-72
2022/05/05 00:21:04;;;;;;;7.65;2.70;;;;;;;16.56;64.23;101432.09;2103760;28;20056;-72
2022/05/05 00:22:27;;;;;;;6.88;2.60;;;;;;;16.54;64.17;101436.56;2098079;28;20143;-72
2022/05/05 00:23:48;;;;;;;5.03;2.33;;;;;;;16.49;64.22;101433.88;2097378;28;20052;-73
2022/05/05 00:25:12;;;;;;;6.13;2.38;;;;;;;16.48;64.30;101432.09;2106734;28;20036;-72
2022/05/05 00:26:33;;;;;;;5.78;2.38;;;;;;;16.44;64.32;101430.31;2101979;28;20582;-72
2022/05/05 00:27:56;;;;;;;6.93;2.70;;;;;;;16.43;64.22;101435.63;2102015;28;20044;-72
2022/05/05 00:29:19;;;;;;;7.85;2.80;;;;;;;16.43;64.16;101435.63;2103351;28;20903;-72
2022/05/05 00:30:41;;;;;;;6.10;2.70;;;;;;;16.40;63.97;101439.19;2103447;28;20096;-72
2022/05/05 00:32:04;;;;;;;11.02;2.58;;;;;;;16.40;63.85;101439.19;2103425;28;20119;-72
2022/05/05 00:33:25;;;;;;;8.05;2.42;;;;;;;16.40;63.73;101432.97;2095410;28;20083;-72
2022/05/05 00:34:48;;;;;;;5.57;2.40;;;;;;;16.38;63.56;101434.72;2099856;28;20143;-72
2022/05/05 00:36:10;;;;;;;4.43;1.98;;;;;;;16.36;63.40;101432.06;2101306;28;20071;-72
2022/05/05 00:37:32;;;;;;;6.80;1.90;;;;;;;16.35;63.24;101435.59;2102168;28;20392;-72
2022/05/05 00:38:53;;;;;;;5.93;2.42;;;;;;;16.36;63.29;101437.38;2096377;28;20051;-72
2022/05/05 00:40:18;;;;;;;6.95;2.58;;;;;;;16.37;63.13;101440.94;2089935;28;20447;-72
2022/05/05 00:41:43;;;;;;;6.28;2.90;;;;;;;16.37;63.04;101436.50;2100220;28;20048;-72
2022/05/05 00:43:04;;;;;;;7.63;2.65;;;;;;;16.38;62.84;101434.72;2103585;28;20052;-72
2022/05/05 00:44:27;;;;;;;4.72;2.40;;;;;;;16.37;62.62;101439.16;2104897;28;20669;-72
2022/05/05 00:45:50;;;;;;;5.90;2.40;;;;;;;16.38;62.64;101432.97;2101107;28;20051;-72
2022/05/05 00:47:16;;;;;;;5.45;2.13;;;;;;;16.38;62.64;101430.31;2099746;28;20097;-72
2022/05/05 00:48:38;;;;;;;4.43;2.42;;;;;;;16.37;62.55;101424.97;2095648;28;20044;-72
2022/05/05 00:50:00;;;;;;;5.72;2.65;;;;;;;16.35;62.69;101431.16;2084263;28;20056;-72
2022/05/05 00:51:22;;;;;;;5.30;2.45;;;;;;;16.35;62.63;101417.84;2088984;28;20549;-71
2022/05/05 00:52:44;;;;;;;3.58;2.38;;;;;;;16.34;62.46;101423.19;2102291;28;20131;-72
2022/05/05 00:54:06;;;;;;;6.35;2.53;;;;;;;16.33;62.48;101424.97;2102585;28;20048;-71
2022/05/05 00:55:33;;;;;;;3.80;1.98;;;;;;;16.35;62.55;101419.63;2098439;28;20036;-72
2022/05/05 00:56:56;;;;;;;7.40;2.40;;;;;;;16.31;62.52;101415.19;2100592;28;20531;-72
2022/05/05 00:58:18;;;;;;;8.00;2.80;;;;;;;16.29;62.58;101428.47;2101954;28;20044;-72
2022/05/05 00:59:43;;;;;;;6.07;2.40;;;;;;;16.27;62.63;101427.63;2094647;28;20512;-72
2022/05/05 01:01:05;;;;;;;8.05;2.75;;;;;;;16.25;62.76;101424.03;2103426;28;20048;-71
2022/05/05 01:02:28;;;;;;;10.25;2.88;;;;;;;16.23;62.75;101414.25;2085561;28;20115;-72
2022/05/05 01:03:51;;;;;;;8.10;4.43;;;;;;;16.21;62.75;101422.25;2098096;28;20044;-72
2022/05/05 01:05:14;;;;;;;9.43;2.60;;;;;;;16.18;62.86;101411.59;2104165;28;20040;-72
2022/05/05 01:06:38;;;;;;;5.65;2.20;;;;;;;16.18;62.86;101416.91;2098851;28;20044;-72
2022/05/05 01:07:59;;;;;;;4.57;2.58;;;;;;;16.16;62.72;101412.47;2102024;28;20122;-71
2022/05/05 01:09:22;;;;;;;8.18;2.67;;;;;;;16.14;62.68;101412.47;2103252;28;20044;-72
2022/05/05 01:10:45;;;;;;;4.22;1.60;;;;;;;16.13;62.48;101417.78;2104764;28;20150;-71
2022/05/05 01:12:09;;;;;;;7.78;2.50;;;;;;;16.14;62.35;101408.91;2102974;28;20062;-72
2022/05/05 01:13:32;;;;;;;8.57;2.92;;;;;;;16.15;62.32;101421.31;2103119;28;20530;-72
2022/05/05 01:14:54;;;;;;;7.53;3.10;;;;;;;16.13;62.21;101418.69;2094910;28;20044;-71
2022/05/05 01:16:17;;;;;;;7.15;2.97;;;;;;;16.13;62.12;101415.13;2089638;28;20045;-72
2022/05/05 01:17:39;;;;;;;10.07;3.58;;;;;;;16.11;62.14;101416.88;2099989;28;20570;-72
2022/05/05 01:19:02;;;;;;;6.72;3.03;;;;;;;16.11;62.06;101425.78;2095554;28;20155;-71
2022/05/05 01:20:23;;;;;;;6.53;3.03;;;;;;;16.09;62.27;101414.22;2094436;28;20097;-72
2022/05/05 01:21:53;;;;;;;9.65;2.60;;;;;;;16.11;62.20;101414.22;2095739;28;20412;-71
2022/05/05 01:23:17;;;;;;;8.75;3.30;;;;;;;16.09;62.29;101410.66;2095787;28;20032;-71
2022/05/05 01:28:14;;;;;;;6.68;2.83;;;;;;;16.07;62.20;101412.44;2097288;28;20052;-71
2022/05/05 01:29:36;;;;;;;9.25;3.00;;;;;;;16.05;62.17;101412.44;2096922;28;20044;-72
2022/05/05 01:30:59;;;;;;;7.88;3.00;;;;;;;16.06;62.20;101408.00;2094484;28;20057;-71
2022/05/05 01:32:21;;;;;;;9.32;3.22;;;;;;;16.06;62.32;101405.34;2101094;28;20036;-72
2022/05/05 01:33:43;;;;;;;8.18;3.10;;;;;;;16.07;62.27;101412.44;2097627;28;20045;-72
2022/05/05 01:35:06;;;;;;;11.52;5.65;;;;;;;16.07;62.33;101409.78;2101256;28;20044;-72
2022/05/05 01:36:28;;;;;;;6.82;2.67;;;;;;;16.04;62.50;101402.66;2094224;28;20044;-72
2022/05/05 01:37:51;;;;;;;7.25;3.13;;;;;;;16.06;62.50;101413.31;2097435;28;20065;-72
2022/05/05 01:39:14;;;;;;;5.88;2.78;;;;;;;16.04;62.51;101405.31;2094684;28;20055;-72
2022/05/05 01:40:35;;;;;;;10.40;2.83;;;;;;;16.03;62.58;101416.84;2095488;28;20037;-72
2022/05/05 01:41:58;;;;;;;;;;;;;;;16.04;62.52;101413.31;2086899;28;20404;-72
2022/05/05 01:43:22;;;;;;;6.20;2.33;;;;;;;16.00;62.63;101405.31;2099493;28;20744;-71
2022/05/05 01:44:45;;;;;;;7.65;3.33;;;;;;;16.00;62.73;101416.84;2098800;28;20506;-71
2022/05/05 01:46:08;;;;;;;5.13;2.47;;;;;;;16.00;62.74;101415.97;2093946;28;20052;-72
2022/05/05 01:47:29;;;;;;;9.10;2.80;;;;;;;15.99;62.67;101404.41;2099360;28;20044;-72
2022/05/05 01:48:51;;;;;;;5.97;2.50;;;;;;;15.98;62.77;101405.31;2103876;28;20113;-72
2022/05/05 01:50:13;;;;;;;6.07;2.60;;;;;;;15.99;62.71;101414.19;2093543;28;20048;-72
2022/05/05 01:51:35;;;;;;;7.22;3.17;;;;;;;15.98;62.66;101412.41;2091648;28;20409;-72
2022/05/05 01:52:59;;;;;;;9.95;2.80;;;;;;;15.97;62.66;101408.84;2099537;28;20036;-72
2022/05/05 01:54:22;;;;;;;7.47;3.15;;;;;;;15.96;62.70;101415.03;2098583;28;20515;-72
2022/05/05 01:55:44;;;;;;;10.23;2.83;;;;;;;15.95;62.67;101413.25;2095206;28;20050;-72
2022/05/05 01:57:07;;;;;;;9.45;2.88;;;;;;;15.97;62.74;101407.94;2091368;28;20040;-72
2022/05/05 01:58:29;;;;;;;5.20;2.55;;;;;;;15.96;62.68;101412.38;2099055;28;20073;-72
2022/05/05 01:59:52;;;;;;;6.57;2.72;;;;;;;15.97;62.72;101418.59;2093739;28;20501;-72
2022/05/05 02:01:14;;;;;;;5.10;2.42;;;;;;;15.98;62.74;101415.06;2102861;28;20052;-72
2022/05/05 02:02:36;;;;;;;4.10;2.38;;;;;;;16.00;62.67;101418.63;2102158;28;20048;-71
2022/05/05 02:04:00;;;;;;;9.35;3.72;;;;;;;15.99;62.47;101420.41;2099945;28;20050;-72
2022/05/05 02:05:22;;;;;;;7.47;2.80;;;;;;;15.99;62.66;101412.41;2100826;28;20496;-72
2022/05/05 02:06:44;;;;;;;6.28;2.65;;;;;;;16.01;62.57;101412.44;2100452;28;20048;-72
2022/05/05 02:08:08;;;;;;;4.72;2.42;;;;;;;16.01;62.61;101412.44;2094356;28;20036;-72
2022/05/05 02:09:31;;;;;;;10.32;2.72;;;;;;;15.99;62.68;101411.53;2094640;28;20052;-72
2022/05/05 02:10:52;;;;;;;10.82;3.00;;;;;;;15.98;62.59;101417.72;2093396;28;20041;-72
2022/05/05 02:12:14;;;;;;;6.05;2.30;;;;;;;15.98;62.61;101421.28;2093192;28;20041;-72
2022/05/05 02:13:37;;;;;;;6.65;2.88;;;;;;;15.98;62.37;101421.28;2090274;28;20045;-72
2022/05/05 02:14:59;;;;;;;5.68;2.53;;;;;;;15.98;62.32;101423.06;2099340;28;20632;-72
2022/05/05 02:16:21;;;;;;;11.35;2.80;;;;;;;15.98;62.18;101428.38;2096506;28;20094;-72
2022/05/05 02:17:45;;;;;;;11.95;3.28;;;;;;;16.00;62.16;101431.94;2097271;28;20428;-71
2022/05/05 02:19:07;;;;;;;5.65;1.95;;;;;;;16.00;62.00;101430.19;2090698;28;20059;-71
2022/05/05 02:20:31;;;;;;;5.80;2.90;;;;;;;16.01;61.80;101431.97;2084531;28;20045;-72
2022/05/05 02:21:53;;;;;;;5.63;2.40;;;;;;;16.02;61.67;101440.81;2091064;28;20421;-72
2022/05/05 02:23:17;;;;;;;10.68;2.78;;;;;;;16.05;61.49;101439.06;2094061;28;20053;-71
2022/05/05 02:24:38;;;;;;;8.90;3.72;;;;;;;16.05;61.47;101435.50;2096294;28;20041;-73
2022/05/05 02:26:01;;;;;;;6.68;2.20;;;;;;;16.04;61.36;101439.94;2098769;28;20064;-72
2022/05/05 02:27:22;;;;;;;6.25;2.85;;;;;;;16.02;61.25;101439.03;2091367;28;20045;-71
2022/05/05 02:28:44;;;;;;;6.50;2.30;;;;;;;16.01;61.16;101439.94;2094481;28;20487;-71
2022/05/05 02:30:07;;;;;;;8.48;2.75;;;;;;;16.02;61.19;101448.81;2094403;28;20099;-72
2022/05/05 02:31:30;;;;;;;6.45;2.10;;;;;;;16.00;61.15;101434.63;2094590;28;20072;-72
2022/05/05 02:32:52;;;;;;;7.47;2.92;;;;;;;15.98;61.15;101436.38;2098610;28;20557;-72
2022/05/05 02:34:14;;;;;;;7.53;2.92;;;;;;;15.97;61.10;101435.47;2102982;28;20059;-72
2022/05/05 02:35:37;;;;;;;9.75;2.78;;;;;;;15.98;61.17;101436.38;2097027;28;20785;-71
2022/05/05 02:38:47;;;;;;;5.10;2.63;;;;;;;15.98;61.07;101434.59;2108989;28;20051;-72
2022/05/05 02:40:11;;;;;;;9.27;3.22;;;;;;;15.97;61.04;101435.47;2109429;28;20040;-72
2022/05/05 02:41:33;;;;;;;3.30;2.00;;;;;;;15.96;61.01;101431.03;2093377;28;20044;-72
2022/05/05 02:42:56;;;;;;;5.88;2.65;;;;;;;15.98;60.99;101423.06;2100168;28;20040;-72
2022/05/05 02:44:19;;;;;;;6.05;2.55;;;;;;;16.00;60.96;101429.28;2093268;28;20052;-72
2022/05/05 02:45:42;;;;;;;7.63;2.85;;;;;;;16.00;60.95;101432.84;2086285;28;20528;-72
2022/05/05 02:47:04;;;;;;;6.10;2.50;;;;;;;15.99;60.89;101417.75;2095585;28;20044;-72
2022/05/05 02:48:26;;;;;;;7.65;2.97;;;;;;;15.99;61.04;101433.72;2097781;28;20048;-71
2022/05/05 02:49:49;;;;;;;7.30;2.28;;;;;;;15.99;61.26;101432.81;2094551;28;20099;-72
2022/05/05 02:51:11;;;;;;;7.32;2.95;;;;;;;15.99;61.26;101438.16;2091691;28;20105;-71
2022/05/05 02:52:34;;;;;;;6.57;2.33;;;;;;;15.98;61.24;101436.38;2090506;28;20063;-71
2022/05/05 02:55:37;;;;;;;7.13;3.83;;;;;;;15.95;61.52;101431.91;2096873;28;20042;-72
2022/05/05 02:56:59;;;;;;;6.13;3.25;;;;;;;15.94;61.68;101430.16;2094032;28;20044;-72
2022/05/05 02:58:21;;;;;;;7.57;2.70;;;;;;;15.94;61.96;101435.47;2099839;28;20074;-71
2022/05/05 02:59:42;;;;;;;6.93;2.70;;;;;;;15.95;62.16;101440.78;2105473;28;20160;-72
2022/05/05 03:01:05;;;;;;;6.80;2.75;;;;;;;15.97;62.20;101442.56;2093973;28;20144;-71
2022/05/05 03:02:29;;;;;;;6.28;2.47;;;;;;;15.97;62.42;101440.81;2096987;28;20045;-72
2022/05/05 03:03:50;;;;;;;6.55;2.70;;;;;;;15.97;62.39;101446.13;2099839;28;20048;-72
2022/05/05 03:05:14;;;;;;;7.00;2.70;;;;;;;15.97;62.58;101439.91;2101412;28;20085;-72
2022/05/05 03:06:36;;;;;;;9.60;2.80;;;;;;;15.93;62.70;101437.25;2102861;28;20690;-72
2022/05/05 03:07:58;;;;;;;7.97;2.65;;;;;;;15.92;62.71;101438.13;2100907;28;20190;-73
2022/05/05 03:09:21;;;;;;;4.63;2.58;;;;;;;15.94;62.84;101446.13;2091004;28;20128;-72
2022/05/05 03:10:44;;;;;;;6.75;2.92;;;;;;;15.94;62.87;101443.47;2094058;28;20052;-72
2022/05/05 03:12:07;;;;;;;4.88;3.00;;;;;;;15.94;63.18;101444.34;2095696;28;20377;-72
2022/05/05 03:13:30;;;;;;;6.00;2.90;;;;;;;15.93;63.21;101450.56;2089161;28;20416;-72
2022/05/05 03:14:52;;;;;;;7.80;2.95;;;;;;;15.92;63.30;101455.88;2100897;28;20052;-72
2022/05/05 03:16:15;;;;;;;8.30;3.75;;;;;;;15.91;63.37;101444.34;2087890;28;20079;-72
2022/05/05 03:17:38;;;;;;;6.22;3.03;;;;;;;15.90;63.47;101444.31;2088854;28;20036;-72
2022/05/05 03:18:59;;;;;;;5.55;3.20;;;;;;;15.91;63.51;101449.66;2088848;28;20099;-72
2022/05/05 03:20:22;;;;;;;6.88;3.25;;;;;;;15.91;63.75;101446.09;2084506;28;20076;-72
2022/05/05 03:21:44;;;;;;;5.55;2.30;;;;;;;15.89;64.00;101443.41;2090651;28;20048;-72
2022/05/05 03:23:07;;;;;;;9.70;2.95;;;;;;;15.91;64.06;101443.44;2095685;28;20048;-72
2022/05/05 03:24:31;;;;;;;8.57;3.22;;;;;;;15.94;64.30;101449.69;2098412;28;20048;-72
2022/05/05 03:25:53;;;;;;;4.75;2.88;;;;;;;15.93;64.27;101453.22;2100165;28;20105;-72
2022/05/05 03:27:15;;;;;;;10.15;3.45;;;;;;;15.94;64.25;101452.34;2095316;28;20511;-72
2022/05/05 03:28:38;;;;;;;6.45;2.47;;;;;;;15.94;64.39;101452.34;2103096;28;20040;-72
2022/05/05 03:30:01;;;;;;;5.97;2.75;;;;;;;15.94;64.42;101455.00;2095762;28;20049;-72
2022/05/05 03:31:22;;;;;;;6.80;3.10;;;;;;;15.94;64.69;101455.00;2087692;28;20048;-72
2022/05/05 03:32:45;;;;;;;4.82;2.80;;;;;;;15.96;64.66;101462.97;2100991;28;20102;-72
2022/05/05 03:34:06;;;;;;;8.73;2.92;;;;;;;15.99;64.81;101465.69;2096457;28;20044;-72
2022/05/05 03:35:29;;;;;;;16.20;4.07;;;;;;;16.00;64.87;101459.47;2092647;28;20053;-72
2022/05/05 03:36:52;;;;;;;5.88;2.75;;;;;;;16.03;64.99;101455.91;2099963;28;20085;-72
2022/05/05 03:38:14;;;;;;;7.45;2.75;;;;;;;16.07;65.22;101460.38;2095600;28;20139;-72
2022/05/05 03:39:38;;;;;;;10.48;3.40;;;;;;;16.14;65.13;101464.88;2092210;28;20121;-71
2022/05/05 03:40:59;;;;;;;12.25;3.50;;;;;;;16.17;65.20;101465.75;2099859;28;20104;-72
2022/05/05 03:42:22;;;;;;;4.38;2.95;;;;;;;16.22;65.24;101466.66;2102595;28;20077;-72
2022/05/05 03:43:43;;;;;;;11.23;3.33;;;;;;;16.28;65.31;101463.13;2097517;28;20818;-71
2022/05/05 03:45:06;;;;;;;8.85;2.97;;;;;;;16.34;65.10;101465.81;2101845;28;20466;-72
2022/05/05 03:46:29;;;;;;;6.78;3.08;;;;;;;16.42;64.97;101471.16;2101745;28;20040;-72
2022/05/05 03:47:52;;;;;;;5.13;2.80;;;;;;;16.48;64.91;101460.50;2094940;28;20060;-72
2022/05/05 03:49:14;;;;;;;7.40;2.85;;;;;;;16.55;64.78;101465.88;2100968;28;20557;-72
2022/05/05 03:50:36;;;;;;;5.43;2.78;;;;;;;16.64;64.69;101465.94;2095467;28;20090;-71
2022/05/05 03:51:58;;;;;;;8.25;2.65;;;;;;;16.71;64.55;101462.41;2092812;28;20056;-72
2022/05/05 03:53:19;;;;;;;4.80;2.75;;;;;;;16.79;64.44;101467.75;2100353;28;20365;-72
2022/05/05 03:54:43;;;;;;;5.43;2.97;;;;;;;16.87;64.45;101470.44;2091978;28;20048;-72
2022/05/05 03:56:06;;;;;;;10.38;2.92;;;;;;;16.92;64.24;101465.97;2099424;28;20048;-72
2022/05/05 03:57:29;;;;;;;7.13;2.70;;;;;;;16.99;64.23;101459.75;2089056;28;20045;-71
2022/05/05 03:58:51;;;;;;;11.40;3.08;;;;;;;17.09;63.98;101466.88;2089693;28;20554;-71
2022/05/05 04:00:13;;;;;;;5.93;3.13;;;;;;;17.17;63.95;101464.19;2086969;28;20071;-72
2022/05/05 04:01:35;;;;;;;7.65;2.78;;;;;;;17.24;63.71;101463.31;2097697;28;20044;-72
2022/05/05 04:04:37;;;;;;;8.40;2.53;;;;;;;17.41;63.32;101466.84;2098263;28;20126;-71
2022/05/05 04:05:59;;;;;;;14.57;3.28;;;;;;;17.48;63.02;101464.19;2092596;28;20080;-73
2022/05/05 04:07:22;;;;;;;5.47;2.60;;;;;;;17.56;62.98;101461.50;2084722;28;20044;-72
2022/05/05 04:08:44;;;;;;;7.15;2.67;;;;;;;17.64;62.76;101461.53;2090111;28;20056;-72
2022/05/05 04:10:10;;;;;;;5.60;2.28;;;;;;;17.75;62.48;101465.94;2092210;28;20044;-71
2022/05/05 04:11:32;;;;;;;6.47;3.10;;;;;;;17.83;62.29;101472.16;2095517;28;20141;-73
2022/05/05 04:12:54;;;;;;;5.25;2.90;;;;;;;17.94;61.96;101482.78;2095288;28;20078;-72
2022/05/05 04:14:17;;;;;;;7.55;3.78;;;;;;;18.01;61.83;101478.31;2101592;28;20043;-72
2022/05/05 04:15:38;;;;;;;5.90;2.65;;;;;;;18.09;61.69;101476.53;2097014;28;20511;-73
2022/05/05 04:17:00;;;;;;;7.85;3.08;;;;;;;18.18;61.47;101484.50;2102996;28;20446;-72
2022/05/05 04:18:22;;;;;;;5.55;2.97;;;;;;;18.27;61.42;101471.09;2095222;28;20052;-71
2022/05/05 04:19:44;;;;;;;6.63;3.20;;;;;;;18.39;61.05;101483.50;2092309;28;20052;-72
2022/05/05 04:21:06;;;;;;;6.13;2.50;;;;;;;18.50;60.89;101477.22;2100394;28;20134;-72
2022/05/05 04:22:28;;;;;;;7.88;2.60;;;;;;;18.60;60.57;101481.66;2094950;28;20076;-72
2022/05/05 04:23:51;;;;;;;7.05;2.88;;;;;;;18.72;60.25;101472.66;2092699;28;20146;-73
2022/05/05 04:25:16;;;;;;;5.40;2.40;;;;;;;18.84;60.17;101483.28;2099495;28;20044;-73
2022/05/05 04:26:39;;;;;;;9.98;2.60;;;;;;;18.94;59.93;101489.47;2102729;28;20130;-72
2022/05/05 04:28:00;;;;;;;5.65;2.60;;;;;;;19.05;59.45;101493.81;2096410;28;20072;-72
2022/05/05 04:29:23;;;;;;;7.78;2.72;;;;;;;19.15;59.43;101485.75;2094782;28;20502;-72
2022/05/05 04:30:45;;;;;;;11.40;2.90;;;;;;;19.25;58.85;101487.44;2091763;28;20082;-73
2022/05/05 04:32:09;;;;;;;3.13;1.75;;;;;;;19.33;58.13;101491.81;2101150;28;20040;-72
2022/05/05 04:33:30;;;;;;;7.22;2.17;;;;;;;19.40;58.04;101489.97;2093177;28;20056;-72
2022/05/05 04:34:54;;;;;;;7.97;2.55;;;;;;;19.48;57.75;101485.50;2095681;28;20048;-72
2022/05/05 04:36:16;;;;;;;8.50;2.63;;;;;;;19.61;57.50;101483.56;2094777;28;20563;-72
2022/05/05 04:37:40;;;;;;;5.28;2.08;;;;;;;19.72;57.45;101487.91;2101110;28;20168;-72
2022/05/05 04:39:03;;;;;;;4.28;2.10;;;;;;;19.85;57.18;101494.03;2104577;28;20048;-72
2022/05/05 04:40:25;;;;;;;7.43;2.30;;;;;;;19.99;56.69;101499.25;2094796;28;20151;-72
2022/05/05 04:41:48;;;;;;;11.38;2.78;;;;;;;20.10;56.50;101502.69;2089573;28;20065;-73
2022/05/05 04:43:11;;;;;;;7.50;2.70;;;;;;;20.23;55.74;101504.31;2098747;28;20044;-72
2022/05/05 04:44:33;;;;;;;6.18;2.50;;;;;;;20.38;55.33;101506.84;2095323;28;20040;-73
2022/05/05 04:45:56;;;;;;;6.72;3.50;;;;;;;20.45;54.47;101505.84;2092775;28;20114;-73
2022/05/05 04:47:18;;;;;;;8.57;2.42;;;;;;;20.52;53.86;101507.56;2093222;28;20060;-71
2022/05/05 04:48:41;;;;;;;9.25;2.88;;;;;;;20.59;53.48;101494.94;2092827;28;20044;-72
2022/05/05 04:50:02;;;;;;;5.97;2.50;;;;;;;20.71;53.02;101493.88;2096234;28;20055;-73
2022/05/05 04:51:25;;;;;;;6.40;2.40;;;;;;;20.85;52.34;101497.25;2091480;28;20045;-73
2022/05/05 04:52:46;;;;;;;8.55;3.10;;;;;;;20.98;52.11;101493.47;2097421;28;20044;-72
2022/05/05 04:54:09;;;;;;;8.00;2.80;;;;;;;21.16;51.59;101482.47;2100022;28;20050;-72
2022/05/05 04:55:33;;;;;;;4.78;2.28;;;;;;;21.36;51.04;101495.56;2097223;28;20115;-72
2022/05/05 04:56:54;;;;;;;8.00;2.70;;;;;;;21.54;50.65;101495.22;2099148;28;20093;-72
2022/05/05 04:58:17;;;;;;;7.18;2.30;;;;;;;21.71;49.90;101489.56;2107818;28;20048;-72
2022/05/05 04:59:39;;;;;;;8.90;3.05;;;;;;;21.78;49.67;101484.06;2105730;28;20051;-73
2022/05/05 05:01:02;;;;;;;4.93;2.63;;;;;;;21.91;49.09;101494.56;2096694;28;20105;-72
2022/05/05 05:02:25;;;;;;;5.72;2.55;;;;;;;21.98;48.72;101497.16;2099971;28;20072;-72
2022/05/05 05:03:48;;;;;;;5.65;2.55;;;;;;;22.09;48.50;101496.94;2105876;28;20059;-73
2022/05/05 05:05:10;;;;;;;9.27;2.35;;;;;;;22.24;48.11;101505.59;2092737;28;20044;-73
2022/05/05 05:06:33;;;;;;;9.70;3.03;;;;;;;22.39;47.77;101504.34;2092598;28;20044;-72
2022/05/05 05:07:55;;;;;;;6.93;2.55;;;;;;;22.57;47.55;101503.09;2090616;28;20120;-73
2022/05/05 05:09:18;;;;;;;14.52;2.83;;;;;;;22.73;47.15;101509.91;2100831;28;20096;-73
2022/05/05 05:10:44;;;;;;;9.35;2.35;;;;;;;22.89;46.86;101503.28;2091873;28;20131;-73
2022/05/05 05:12:08;;;;;;;5.28;2.65;;;;;;;22.91;46.41;101501.41;2091703;28;20107;-73
2022/05/05 05:13:30;;;;;;;7.15;2.35;;;;;;;23.04;46.20;101510.09;2102268;28;20040;-73
2022/05/05 05:14:53;;;;;;;7.68;2.65;;;;;;;23.26;45.99;101502.38;2101276;28;20044;-73
2022/05/05 05:16:15;;;;;;;8.85;2.60;;;;;;;23.40;45.39;101495.72;2091939;28;20507;-73
2022/05/05 05:17:38;;;;;;;8.40;2.42;;;;;;;23.52;44.94;101508.03;2099740;28;20048;-73
2022/05/05 05:19:00;;;;;;;7.32;2.38;;;;;;;23.63;44.61;101502.38;2097350;28;20077;-73
2022/05/05 05:20:22;;;;;;;6.18;2.75;;;;;;;23.77;44.26;101508.25;2096498;28;20054;-73
2022/05/05 05:21:44;;;;;;;9.10;2.72;;;;;;;23.87;43.58;101492.72;2099727;28;20134;-72
2022/05/05 05:23:06;;;;;;;8.70;2.30;;;;;;;23.91;42.93;101507.88;2091918;28;20833;-73
2022/05/05 05:24:29;;;;;;;4.68;2.28;;;;;;;24.01;42.64;101502.22;2097845;28;20743;-73
2022/05/05 05:25:53;;;;;;;7.13;2.60;;;;;;;24.10;42.21;101495.66;2094809;28;20420;-72
2022/05/05 05:27:16;;;;;;;4.38;2.20;;;;;;;24.17;42.02;101502.66;2097075;28;20055;-73
2022/05/05 05:28:39;;;;;;;7.00;2.30;;;;;;;24.21;41.82;101507.06;2103123;28;20104;-72
2022/05/05 05:30:01;;;;;;;9.10;2.53;;;;;;;24.34;41.60;101504.91;2102575;28;20063;-73
2022/05/05 05:31:23;;;;;;;6.03;2.55;;;;;;;24.33;41.38;101508.53;2105691;28;20464;-73
2022/05/05 05:32:46;;;;;;;5.60;2.67;;;;;;;24.35;41.16;101501.28;2101026;28;20052;-73
2022/05/05 05:34:08;;;;;;;6.30;3.13;;;;;;;24.40;41.37;101505.59;2099354;28;20483;-73
2022/05/05 05:35:31;;;;;;;5.40;2.92;;;;;;;24.48;41.06;101519.75;2094342;28;20029;-73
2022/05/05 05:36:53;;;;;;;9.57;3.58;;;;;;;24.54;40.93;101516.88;2100731;28;20094;-73
2022/05/05 05:38:19;;;;;;;4.00;2.10;;;;;;;24.75;40.78;101527.94;2103029;28;20143;-74
2022/05/05 05:39:42;;;;;;;5.55;2.20;;;;;;;24.91;40.43;101529.28;2101270;28;20327;-73
2022/05/05 05:41:06;;;;;;;5.13;2.30;;;;;;;25.06;39.94;101525.22;2100256;28;20040;-73
2022/05/05 05:42:29;;;;;;;6.10;2.17;;;;;;;25.10;39.63;101521.47;2098317;28;20048;-73
2022/05/05 05:43:51;;;;;;;8.07;2.63;;;;;;;25.06;39.81;101528.81;2102866;28;20040;-73
2022/05/05 05:45:14;;;;;;;8.10;2.20;;;;;;;25.19;39.76;101526.59;2095539;28;20052;-73
2022/05/05 05:46:36;;;;;;;4.45;2.50;;;;;;;25.36;39.64;101521.50;2086757;28;20452;-73
2022/05/05 05:47:58;;;;;;;5.22;2.35;;;;;;;25.46;39.29;101522.09;2100054;28;20047;-74
2022/05/05 05:49:21;;;;;;;6.40;2.03;;;;;;;25.46;39.01;101527.50;2101980;28;20488;-73
2022/05/05 05:50:44;;;;;;;4.50;1.88;;;;;;;25.48;39.23;101536.41;2103269;28;20039;-73
2022/05/05 05:52:07;;;;;;;9.55;2.25;;;;;;;25.56;39.27;101539.75;2102037;28;20930;-72
2022/05/05 05:53:30;;;;;;;5.97;2.10;;;;;;;25.68;39.10;101539.38;2105395;28;20043;-73
2022/05/05 05:54:52;;;;;;;7.30;2.22;;;;;;;25.72;38.48;101543.75;2102316;28;20155;-73
2022/05/05 05:56:16;;;;;;;4.20;2.13;;;;;;;25.75;38.69;101535.50;2093418;28;20382;-73
2022/05/05 05:57:39;;;;;;;6.68;2.92;;;;;;;25.65;38.17;101543.09;2098919;28;20036;-73
2022/05/05 05:59:01;;;;;;;8.07;2.40;;;;;;;25.59;38.16;101542.41;2093166;28;20045;-73
2022/05/05 08:56:09;;;;;;;6.70;2.35;;;;;;;26.88;34.51;101595.44;2106060;27;20443;-75
2022/05/05 08:57:32;;;;;;;5.38;1.80;;;;;;;26.89;34.77;101596.34;2102125;28;20102;-74
2022/05/05 08:58:55;;;;;;;3.50;2.10;;;;;;;26.86;34.86;101586.47;2101504;28;20079;-76
2022/05/05 09:00:19;;;;;;;6.97;2.42;;;;;;;26.75;34.52;101595.97;2099181;28;20147;-75
2022/05/05 09:01:42;;;;;;;6.97;2.38;;;;;;;26.63;34.85;101600.03;2100005;28;20147;-74
2022/05/05 09:03:08;;;;;;;8.30;2.35;;;;;;;26.67;34.92;101593.53;2090394;28;20075;-74
2022/05/05 09:04:31;;;;;;;5.28;2.45;;;;;;;26.73;34.90;101598.72;2100098;28;20052;-75
2022/05/05 09:05:55;;;;;;;3.10;2.10;;;;;;;26.68;34.60;101597.13;2103537;28;20579;-73
2022/05/05 09:07:17;;;;;;;9.38;2.00;;;;;;;26.68;34.61;101589.91;2093316;28;20045;-75
2022/05/05 09:08:40;;;;;;;4.75;2.08;;;;;;;26.66;34.63;101599.00;2100551;28;20048;-75
2022/05/05 09:10:02;;;;;;;4.13;2.35;;;;;;;26.71;34.49;101600.63;2091561;28;20041;-75
2022/05/05 09:11:26;;;;;;;5.90;2.00;;;;;;;26.80;34.31;101596.66;2095106;28;20060;-75
2022/05/05 09:12:59;;;;;;;5.65;1.85;;;;;;;26.84;34.34;101587.50;2099522;28;20044;-75
2022/05/05 09:14:22;;;;;;;5.70;1.80;;;;;;;26.85;34.35;101597.34;2098342;28;20052;-75
2022/05/05 09:15:45;;;;;;;8.75;2.13;;;;;;;26.92;34.19;101590.78;2098635;28;20631;-75
2022/05/05 09:17:10;;;;;;;4.20;1.95;;;;;;;27.07;34.13;101587.50;2085157;28;20151;-75
2022/05/05 09:18:34;;;;;;;4.90;2.10;;;;;;;27.24;33.82;101581.41;2099272;28;20048;-74
2022/05/05 09:19:59;;;;;;;2.97;1.98;;;;;;;27.37;33.82;101571.84;2090528;28;20053;-75
2022/05/05 09:21:34;;;;;;;4.85;2.50;;;;;;;27.46;33.72;101574.16;2090327;28;20061;-74
2022/05/05 09:22:56;;;;;;;4.68;2.47;;;;;;;27.36;34.13;101581.81;2094779;28;20037;-75
2022/05/05 09:24:36;;;;;;;5.18;2.00;;;;;;;27.36;34.03;101579.09;2101506;28;20048;-75
2022/05/05 09:25:59;;;;;;;7.20;2.30;;;;;;;27.37;34.18;101591.66;2092390;28;20055;-75
2022/05/05 09:27:25;;;;;;;4.65;2.17;;;;;;;27.50;34.08;101594.78;2095046;28;20102;-75
2022/05/05 09:28:49;;;;;;;8.65;2.30;;;;;;;27.55;33.85;101595.50;2098405;28;20119;-77
2022/05/05 09:30:12;;;;;;;7.72;2.30;;;;;;;27.55;33.46;101576.53;2103487;28;20097;-74
2022/05/05 09:31:40;;;;;;;4.32;1.95;;;;;;;27.62;33.39;101586.16;2092555;28;20527;-74
2022/05/05 09:33:02;;;;;;;3.45;1.58;;;;;;;27.56;33.28;101582.84;2099845;28;20112;-75
2022/05/05 09:34:25;;;;;;;4.15;1.92;;;;;;;27.46;33.59;101581.41;2083334;28;20525;-75